sensor_id;sensor_type;location;lat;lon;timestamp;temperature;humidity
20841;DHT22;10581;48.524;9.040;2022-08-25T00:01:19;17.60;99.90
20841;DHT22;10581;48.524;9.040;2022-08-25T00:03:46;17.60;99.90
20841;DHT22;10581;48.524;9.040;2022-08-25T00:06:12;17.60;99.90
20841;DHT22;10581;48.524;9.040;2022-08-25T00:08:39;17.50;99.90
20841;DHT22;10581;48.524;9.040;2022-08-25T00:11:11;17.40;99.90
20841;DHT22;10581;48.524;9.040;2022-08-25T00:13:41;17.20;99.90
20841;DHT22;10581;48.524;9.040;2022-08-25T00:16:09;17.10;99.90
20841;DHT22;10581;48.524;9.040;2022-08-25T00:18:36;17.10;99.90
20841;DHT22;10581;48.524;9.040;2022-08-25T00:21:03;17.00;99.90
20841;DHT22;10581;48.524;9.040;2022-08-25T00:23:29;16.90;99.90
20841;DHT22;10581;48.524;9.040;2022-08-25T00:25:54;16.90;99.90
20841;DHT22;10581;48.524;9.040;2022-08-25T00:28:20;16.80;99.90
20841;DHT22;10581;48.524;9.040;2022-08-25T00:30:46;16.90;99.90
20841;DHT22;10581;48.524;9.040;2022-08-25T00:33:14;16.80;99.90
20841;DHT22;10581;48.524;9.040;2022-08-25T00:35:40;16.70;99.90
20841;DHT22;10581;48.524;9.040;2022-08-25T00:38:07;16.70;99.90
20841;DHT22;10581;48.524;9.040;2022-08-25T00:40:34;16.70;99.90
20841;DHT22;10581;48.524;9.040;2022-08-25T00:43:00;16.70;99.90
20841;DHT22;10581;48.524;9.040;2022-08-25T00:45:27;16.60;99.90
20841;DHT22;10581;48.524;9.040;2022-08-25T00:47:53;16.60;99.90
20841;DHT22;10581;48.524;9.040;2022-08-25T00:50:20;16.60;99.90
20841;DHT22;10581;48.524;9.040;2022-08-25T00:52:50;16.50;99.90
20841;DHT22;10581;48.524;9.040;2022-08-25T00:55:26;16.50;99.90
20841;DHT22;10581;48.524;9.040;2022-08-25T00:57:56;16.50;99.90
20841;DHT22;10581;48.524;9.040;2022-08-25T01:00:33;16.50;99.90
20841;DHT22;10581;48.524;9.040;2022-08-25T01:03:00;16.50;99.90
20841;DHT22;10581;48.524;9.040;2022-08-25T01:05:26;16.50;99.90
20841;DHT22;10581;48.524;9.040;2022-08-25T01:07:54;16.50;99.90
20841;DHT22;10581;48.524;9.040;2022-08-25T01:10:22;16.50;99.90
20841;DHT22;10581;48.524;9.040;2022-08-25T01:12:49;16.50;99.90
20841;DHT22;10581;48.524;9.040;2022-08-25T01:15:16;16.50;99.90
20841;DHT22;10581;48.524;9.040;2022-08-25T01:17:51;16.50;99.90
20841;DHT22;10581;48.524;9.040;2022-08-25T01:20:19;16.50;99.90
20841;DHT22;10581;48.524;9.040;2022-08-25T01:22:46;16.50;99.90
20841;DHT22;10581;48.524;9.040;2022-08-25T01:28:07;16.30;99.90
20841;DHT22;10581;48.524;9.040;2022-08-25T01:30:33;16.10;99.90
20841;DHT22;10581;48.524;9.040;2022-08-25T01:33:06;16.00;99.90
20841;DHT22;10581;48.524;9.040;2022-08-25T01:35:32;16.00;99.90
20841;DHT22;10581;48.524;9.040;2022-08-25T01:38:00;15.90;99.90
20841;DHT22;10581;48.524;9.040;2022-08-25T01:40:26;15.90;99.90
20841;DHT22;10581;48.524;9.040;2022-08-25T01:43:21;15.80;99.90
20841;DHT22;10581;48.524;9.040;2022-08-25T01:45:50;15.80;99.90
20841;DHT22;10581;48.524;9.040;2022-08-25T01:48:15;15.80;99.90
20841;DHT22;10581;48.524;9.040;2022-08-25T01:50:41;15.80;99.90
20841;DHT22;10581;48.524;9.040;2022-08-25T01:53:28;15.80;99.90
20841;DHT22;10581;48.524;9.040;2022-08-25T01:55:55;15.80;99.90
20841;DHT22;10581;48.524;9.040;2022-08-25T01:58:32;15.70;99.90
20841;DHT22;10581;48.524;9.040;2022-08-25T02:00:59;15.70;99.90
20841;DHT22;10581;48.524;9.040;2022-08-25T02:03:27;15.70;99.90
20841;DHT22;10581;48.524;9.040;2022-08-25T02:05:53;15.70;99.90
20841;DHT22;10581;48.524;9.040;2022-08-25T02:08:19;15.80;99.90
20841;DHT22;10581;48.524;9.040;2022-08-25T02:10:47;15.70;99.90
20841;DHT22;10581;48.524;9.040;2022-08-25T02:13:13;15.60;99.90
20841;DHT22;10581;48.524;9.040;2022-08-25T02:15:44;15.50;99.90
20841;DHT22;10581;48.524;9.040;2022-08-25T02:18:11;15.40;99.90
20841;DHT22;10581;48.524;9.040;2022-08-25T02:20:37;15.30;99.90
20841;DHT22;10581;48.524;9.040;2022-08-25T02:23:04;15.20;99.90
20841;DHT22;10581;48.524;9.040;2022-08-25T02:25:30;15.20;99.90
20841;DHT22;10581;48.524;9.040;2022-08-25T02:27:56;15.10;99.90
20841;DHT22;10581;48.524;9.040;2022-08-25T02:30:23;15.10;99.90
20841;DHT22;10581;48.524;9.040;2022-08-25T02:32:48;15.10;99.90
20841;DHT22;10581;48.524;9.040;2022-08-25T02:35:14;15.10;99.90
20841;DHT22;10581;48.524;9.040;2022-08-25T02:37:40;15.10;99.90
20841;DHT22;10581;48.524;9.040;2022-08-25T02:40:06;15.00;99.90
20841;DHT22;10581;48.524;9.040;2022-08-25T02:42:32;15.00;99.90
20841;DHT22;10581;48.524;9.040;2022-08-25T02:44:58;15.00;99.90
20841;DHT22;10581;48.524;9.040;2022-08-25T02:47:23;15.00;99.90
20841;DHT22;10581;48.524;9.040;2022-08-25T02:49:49;15.00;99.90
20841;DHT22;10581;48.524;9.040;2022-08-25T02:52:15;15.00;99.90
20841;DHT22;10581;48.524;9.040;2022-08-25T02:54:41;15.00;99.90
20841;DHT22;10581;48.524;9.040;2022-08-25T02:57:07;15.00;99.90
20841;DHT22;10581;48.524;9.040;2022-08-25T02:59:32;14.90;99.90
20841;DHT22;10581;48.524;9.040;2022-08-25T03:01:59;14.90;99.90
20841;DHT22;10581;48.524;9.040;2022-08-25T03:04:24;14.90;99.90
20841;DHT22;10581;48.524;9.040;2022-08-25T03:06:50;14.80;99.90
20841;DHT22;10581;48.524;9.040;2022-08-25T03:09:15;14.80;99.90
20841;DHT22;10581;48.524;9.040;2022-08-25T03:11:42;14.80;99.90
20841;DHT22;10581;48.524;9.040;2022-08-25T03:14:08;14.70;99.90
20841;DHT22;10581;48.524;9.040;2022-08-25T03:16:35;14.70;99.90
20841;DHT22;10581;48.524;9.040;2022-08-25T03:19:00;14.80;99.90
20841;DHT22;10581;48.524;9.040;2022-08-25T03:21:27;14.80;99.90
20841;DHT22;10581;48.524;9.040;2022-08-25T03:23:53;14.80;99.90
20841;DHT22;10581;48.524;9.040;2022-08-25T03:26:19;14.70;99.90
20841;DHT22;10581;48.524;9.040;2022-08-25T03:29:03;14.70;99.90
20841;DHT22;10581;48.524;9.040;2022-08-25T03:31:33;14.60;99.90
20841;DHT22;10581;48.524;9.040;2022-08-25T03:33:59;14.60;99.90
20841;DHT22;10581;48.524;9.040;2022-08-25T03:36:26;14.60;99.90
20841;DHT22;10581;48.524;9.040;2022-08-25T03:38:52;14.70;99.90
20841;DHT22;10581;48.524;9.040;2022-08-25T03:41:24;14.70;99.90
20841;DHT22;10581;48.524;9.040;2022-08-25T03:43:50;14.70;99.90
20841;DHT22;10581;48.524;9.040;2022-08-25T03:46:22;14.60;99.90
20841;DHT22;10581;48.524;9.040;2022-08-25T03:48:48;14.60;99.90
20841;DHT22;10581;48.524;9.040;2022-08-25T03:51:28;14.60;99.90
20841;DHT22;10581;48.524;9.040;2022-08-25T03:53:54;14.60;99.90
20841;DHT22;10581;48.524;9.040;2022-08-25T03:56:20;14.60;99.90
20841;DHT22;10581;48.524;9.040;2022-08-25T03:58:46;14.60;99.90
20841;DHT22;10581;48.524;9.040;2022-08-25T04:01:13;14.60;99.90
20841;DHT22;10581;48.524;9.040;2022-08-25T04:03:39;14.60;99.90
20841;DHT22;10581;48.524;9.040;2022-08-25T04:06:06;14.50;99.90
20841;DHT22;10581;48.524;9.040;2022-08-25T04:08:32;14.50;99.90
20841;DHT22;10581;48.524;9.040;2022-08-25T04:10:58;14.50;99.90
20841;DHT22;10581;48.524;9.040;2022-08-25T04:13:24;14.60;99.90
20841;DHT22;10581;48.524;9.040;2022-08-25T04:15:49;14.60;99.90
20841;DHT22;10581;48.524;9.040;2022-08-25T04:18:15;14.60;99.90
20841;DHT22;10581;48.524;9.040;2022-08-25T04:20:42;14.60;99.90
20841;DHT22;10581;48.524;9.040;2022-08-25T04:23:08;14.50;99.90
20841;DHT22;10581;48.524;9.040;2022-08-25T04:25:38;14.50;99.90
20841;DHT22;10581;48.524;9.040;2022-08-25T04:28:07;14.40;99.90
20841;DHT22;10581;48.524;9.040;2022-08-25T04:30:33;14.40;99.90
20841;DHT22;10581;48.524;9.040;2022-08-25T04:32:59;14.40;99.90
20841;DHT22;10581;48.524;9.040;2022-08-25T04:35:25;14.40;99.90
20841;DHT22;10581;48.524;9.040;2022-08-25T04:37:50;14.30;99.90
20841;DHT22;10581;48.524;9.040;2022-08-25T04:40:16;14.30;99.90
20841;DHT22;10581;48.524;9.040;2022-08-25T04:42:42;14.30;99.90
20841;DHT22;10581;48.524;9.040;2022-08-25T04:45:09;14.30;99.90
20841;DHT22;10581;48.524;9.040;2022-08-25T04:47:37;14.40;99.90
20841;DHT22;10581;48.524;9.040;2022-08-25T04:50:04;14.50;99.90
20841;DHT22;10581;48.524;9.040;2022-08-25T04:52:29;14.50;99.90
20841;DHT22;10581;48.524;9.040;2022-08-25T04:54:55;14.50;99.90
20841;DHT22;10581;48.524;9.040;2022-08-25T04:57:21;14.50;99.90
20841;DHT22;10581;48.524;9.040;2022-08-25T04:59:46;14.40;99.90
20841;DHT22;10581;48.524;9.040;2022-08-25T05:02:12;14.40;99.90
20841;DHT22;10581;48.524;9.040;2022-08-25T05:04:37;14.50;99.90
20841;DHT22;10581;48.524;9.040;2022-08-25T05:07:04;14.50;99.90
20841;DHT22;10581;48.524;9.040;2022-08-25T05:09:30;14.50;99.90
20841;DHT22;10581;48.524;9.040;2022-08-25T05:11:56;14.50;99.90
20841;DHT22;10581;48.524;9.040;2022-08-25T05:14:22;14.50;99.90
20841;DHT22;10581;48.524;9.040;2022-08-25T05:16:48;14.50;99.90
20841;DHT22;10581;48.524;9.040;2022-08-25T05:19:14;14.60;99.90
20841;DHT22;10581;48.524;9.040;2022-08-25T05:21:40;14.60;99.90
20841;DHT22;10581;48.524;9.040;2022-08-25T05:24:06;14.70;99.90
20841;DHT22;10581;48.524;9.040;2022-08-25T05:26:34;14.80;99.90
20841;DHT22;10581;48.524;9.040;2022-08-25T05:29:02;14.80;99.90
20841;DHT22;10581;48.524;9.040;2022-08-25T05:31:29;14.80;99.90
20841;DHT22;10581;48.524;9.040;2022-08-25T05:33:56;14.90;99.90
20841;DHT22;10581;48.524;9.040;2022-08-25T05:36:23;15.00;99.90
20841;DHT22;10581;48.524;9.040;2022-08-25T05:38:49;15.00;99.90
20841;DHT22;10581;48.524;9.040;2022-08-25T05:41:20;15.10;99.90
20841;DHT22;10581;48.524;9.040;2022-08-25T05:43:47;15.20;99.90
20841;DHT22;10581;48.524;9.040;2022-08-25T05:46:14;15.30;99.90
20841;DHT22;10581;48.524;9.040;2022-08-25T05:48:40;15.40;99.90
20841;DHT22;10581;48.524;9.040;2022-08-25T05:51:08;15.50;99.90
20841;DHT22;10581;48.524;9.040;2022-08-25T05:53:35;15.50;99.90
20841;DHT22;10581;48.524;9.040;2022-08-25T05:56:01;15.60;99.90
20841;DHT22;10581;48.524;9.040;2022-08-25T05:58:28;15.70;99.90
20841;DHT22;10581;48.524;9.040;2022-08-25T06:00:56;15.80;99.90
20841;DHT22;10581;48.524;9.040;2022-08-25T06:03:22;15.90;99.90
20841;DHT22;10581;48.524;9.040;2022-08-25T06:05:48;16.00;99.90
20841;DHT22;10581;48.524;9.040;2022-08-25T06:08:14;16.10;99.90
20841;DHT22;10581;48.524;9.040;2022-08-25T06:10:41;16.20;99.90
20841;DHT22;10581;48.524;9.040;2022-08-25T06:13:06;16.20;99.90
20841;DHT22;10581;48.524;9.040;2022-08-25T06:15:32;16.30;99.90
20841;DHT22;10581;48.524;9.040;2022-08-25T06:17:58;16.40;99.90
20841;DHT22;10581;48.524;9.040;2022-08-25T06:20:27;16.50;99.90
20841;DHT22;10581;48.524;9.040;2022-08-25T06:22:53;16.60;99.90
20841;DHT22;10581;48.524;9.040;2022-08-25T06:25:21;16.60;99.90
20841;DHT22;10581;48.524;9.040;2022-08-25T06:27:47;16.70;99.90
20841;DHT22;10581;48.524;9.040;2022-08-25T06:30:16;16.70;99.90
20841;DHT22;10581;48.524;9.040;2022-08-25T06:32:43;16.70;99.90
20841;DHT22;10581;48.524;9.040;2022-08-25T06:35:13;16.80;99.90
20841;DHT22;10581;48.524;9.040;2022-08-25T06:37:39;16.80;99.90
20841;DHT22;10581;48.524;9.040;2022-08-25T06:40:07;16.80;99.90
20841;DHT22;10581;48.524;9.040;2022-08-25T06:42:32;16.90;99.90
20841;DHT22;10581;48.524;9.040;2022-08-25T06:44:59;17.00;99.90
20841;DHT22;10581;48.524;9.040;2022-08-25T06:47:25;17.10;99.90
20841;DHT22;10581;48.524;9.040;2022-08-25T06:49:51;17.20;99.90
20841;DHT22;10581;48.524;9.040;2022-08-25T06:52:17;17.30;99.90
20841;DHT22;10581;48.524;9.040;2022-08-25T06:54:43;17.40;99.90
20841;DHT22;10581;48.524;9.040;2022-08-25T06:57:08;17.50;99.90
20841;DHT22;10581;48.524;9.040;2022-08-25T06:59:34;17.60;99.90
20841;DHT22;10581;48.524;9.040;2022-08-25T07:02:01;17.70;99.90
20841;DHT22;10581;48.524;9.040;2022-08-25T07:04:27;17.80;99.90
20841;DHT22;10581;48.524;9.040;2022-08-25T07:06:53;17.80;99.90
20841;DHT22;10581;48.524;9.040;2022-08-25T07:09:19;17.90;99.90
20841;DHT22;10581;48.524;9.040;2022-08-25T07:11:45;18.00;99.90
20841;DHT22;10581;48.524;9.040;2022-08-25T07:14:12;18.10;99.90
20841;DHT22;10581;48.524;9.040;2022-08-25T07:16:39;18.30;99.90
20841;DHT22;10581;48.524;9.040;2022-08-25T07:19:05;18.40;99.90
20841;DHT22;10581;48.524;9.040;2022-08-25T07:21:33;18.50;99.90
20841;DHT22;10581;48.524;9.040;2022-08-25T07:24:00;18.70;99.90
20841;DHT22;10581;48.524;9.040;2022-08-25T07:26:30;18.80;99.90
20841;DHT22;10581;48.524;9.040;2022-08-25T07:28:56;18.90;99.90
20841;DHT22;10581;48.524;9.040;2022-08-25T07:31:23;19.10;99.90
20841;DHT22;10581;48.524;9.040;2022-08-25T07:33:48;19.20;99.90
20841;DHT22;10581;48.524;9.040;2022-08-25T07:36:33;19.30;99.90
20841;DHT22;10581;48.524;9.040;2022-08-25T07:39:00;19.50;99.90
20841;DHT22;10581;48.524;9.040;2022-08-25T07:41:30;19.70;99.90
20841;DHT22;10581;48.524;9.040;2022-08-25T07:43:57;19.90;99.90
20841;DHT22;10581;48.524;9.040;2022-08-25T07:46:22;20.00;99.90
20841;DHT22;10581;48.524;9.040;2022-08-25T07:48:48;20.20;99.90
20841;DHT22;10581;48.524;9.040;2022-08-25T07:51:14;20.40;99.90
20841;DHT22;10581;48.524;9.040;2022-08-25T07:53:40;20.60;99.90
20841;DHT22;10581;48.524;9.040;2022-08-25T07:56:14;20.70;99.90
20841;DHT22;10581;48.524;9.040;2022-08-25T07:58:41;20.90;99.90
20841;DHT22;10581;48.524;9.040;2022-08-25T08:01:14;20.90;99.90
20841;DHT22;10581;48.524;9.040;2022-08-25T08:03:40;21.00;99.90
20841;DHT22;10581;48.524;9.040;2022-08-25T08:06:08;21.20;99.90
20841;DHT22;10581;48.524;9.040;2022-08-25T08:08:36;21.20;99.90
20841;DHT22;10581;48.524;9.040;2022-08-25T08:11:03;21.40;99.90
20841;DHT22;10581;48.524;9.040;2022-08-25T08:13:28;21.60;99.90
20841;DHT22;10581;48.524;9.040;2022-08-25T08:15:54;21.70;99.90
20841;DHT22;10581;48.524;9.040;2022-08-25T08:18:20;21.90;99.90
20841;DHT22;10581;48.524;9.040;2022-08-25T08:20:47;22.10;99.90
20841;DHT22;10581;48.524;9.040;2022-08-25T08:23:14;22.10;99.90
20841;DHT22;10581;48.524;9.040;2022-08-25T08:25:40;22.20;99.90
20841;DHT22;10581;48.524;9.040;2022-08-25T08:28:05;22.30;99.90
20841;DHT22;10581;48.524;9.040;2022-08-25T08:30:32;22.20;99.90
20841;DHT22;10581;48.524;9.040;2022-08-25T08:32:57;22.40;99.90
20841;DHT22;10581;48.524;9.040;2022-08-25T08:35:23;22.40;99.90
20841;DHT22;10581;48.524;9.040;2022-08-25T08:37:49;22.50;99.90
20841;DHT22;10581;48.524;9.040;2022-08-25T08:40:15;22.70;99.90
20841;DHT22;10581;48.524;9.040;2022-08-25T08:43:04;22.70;99.90
20841;DHT22;10581;48.524;9.040;2022-08-25T08:45:36;22.80;99.90
20841;DHT22;10581;48.524;9.040;2022-08-25T08:48:20;22.80;99.90
20841;DHT22;10581;48.524;9.040;2022-08-25T08:50:59;22.90;99.90
20841;DHT22;10581;48.524;9.040;2022-08-25T08:54:07;23.00;99.90
20841;DHT22;10581;48.524;9.040;2022-08-25T08:56:39;23.10;99.90
20841;DHT22;10581;48.524;9.040;2022-08-25T08:59:14;23.20;99.90
20841;DHT22;10581;48.524;9.040;2022-08-25T09:01:53;23.40;99.90
20841;DHT22;10581;48.524;9.040;2022-08-25T09:04:38;23.40;99.90
20841;DHT22;10581;48.524;9.040;2022-08-25T09:07:11;23.50;99.90
20841;DHT22;10581;48.524;9.040;2022-08-25T09:09:39;23.50;99.90
20841;DHT22;10581;48.524;9.040;2022-08-25T09:15:35;23.70;99.90
20841;DHT22;10581;48.524;9.040;2022-08-25T09:21:15;23.90;99.90
20841;DHT22;10581;48.524;9.040;2022-08-25T09:29:23;23.90;99.90
20841;DHT22;10581;48.524;9.040;2022-08-25T09:31:49;24.10;99.90
20841;DHT22;10581;48.524;9.040;2022-08-25T09:34:20;24.20;99.90
20841;DHT22;10581;48.524;9.040;2022-08-25T09:36:46;24.20;99.90
20841;DHT22;10581;48.524;9.040;2022-08-25T09:39:15;24.30;99.90
20841;DHT22;10581;48.524;9.040;2022-08-25T09:44:22;24.50;99.90
20841;DHT22;10581;48.524;9.040;2022-08-25T09:47:05;24.60;99.90
20841;DHT22;10581;48.524;9.040;2022-08-25T09:49:38;24.70;99.90
20841;DHT22;10581;48.524;9.040;2022-08-25T09:52:36;24.80;99.90
20841;DHT22;10581;48.524;9.040;2022-08-25T09:57:51;24.80;99.90
20841;DHT22;10581;48.524;9.040;2022-08-25T10:05:33;25.00;99.90
20841;DHT22;10581;48.524;9.040;2022-08-25T10:08:10;25.00;99.90
20841;DHT22;10581;48.524;9.040;2022-08-25T10:10:52;25.00;99.90
20841;DHT22;10581;48.524;9.040;2022-08-25T10:13:20;25.00;99.90
20841;DHT22;10581;48.524;9.040;2022-08-25T10:15:46;25.00;99.90
20841;DHT22;10581;48.524;9.040;2022-08-25T10:18:22;25.00;99.90
20841;DHT22;10581;48.524;9.040;2022-08-25T10:21:14;25.10;99.90
20841;DHT22;10581;48.524;9.040;2022-08-25T10:23:46;25.20;99.90
20841;DHT22;10581;48.524;9.040;2022-08-25T10:26:28;25.50;99.90
20841;DHT22;10581;48.524;9.040;2022-08-25T10:31:38;25.50;99.90
20841;DHT22;10581;48.524;9.040;2022-08-25T10:36:59;25.40;99.90
20841;DHT22;10581;48.524;9.040;2022-08-25T10:39:37;25.60;99.90
20841;DHT22;10581;48.524;9.040;2022-08-25T10:44:57;25.80;99.90
20841;DHT22;10581;48.524;9.040;2022-08-25T10:50:34;25.80;99.90
20841;DHT22;10581;48.524;9.040;2022-08-25T10:56:19;25.80;99.90
20841;DHT22;10581;48.524;9.040;2022-08-25T11:04:39;26.30;99.90
20841;DHT22;10581;48.524;9.040;2022-08-25T11:07:27;26.40;99.90
20841;DHT22;10581;48.524;9.040;2022-08-25T11:09:58;26.70;99.90
20841;DHT22;10581;48.524;9.040;2022-08-25T11:12:35;26.70;99.90
20841;DHT22;10581;48.524;9.040;2022-08-25T11:15:12;26.60;99.90
20841;DHT22;10581;48.524;9.040;2022-08-25T11:17:56;26.60;99.90
20841;DHT22;10581;48.524;9.040;2022-08-25T11:20:33;26.90;99.90
20841;DHT22;10581;48.524;9.040;2022-08-25T11:23:26;26.90;99.90
20841;DHT22;10581;48.524;9.040;2022-08-25T11:26:11;26.90;99.90
20841;DHT22;10581;48.524;9.040;2022-08-25T11:29:00;26.90;99.90
20841;DHT22;10581;48.524;9.040;2022-08-25T11:31:27;27.30;99.90
20841;DHT22;10581;48.524;9.040;2022-08-25T11:33:53;27.50;99.90
20841;DHT22;10581;48.524;9.040;2022-08-25T11:36:35;27.70;99.90
20841;DHT22;10581;48.524;9.040;2022-08-25T11:42:57;28.40;99.90
20841;DHT22;10581;48.524;9.040;2022-08-25T11:51:09;29.60;99.90
20841;DHT22;10581;48.524;9.040;2022-08-25T11:53:40;29.70;99.90
20841;DHT22;10581;48.524;9.040;2022-08-25T11:56:31;30.10;99.90
20841;DHT22;10581;48.524;9.040;2022-08-25T11:58:58;30.50;99.90
20841;DHT22;10581;48.524;9.040;2022-08-25T12:04:35;29.80;99.90
20841;DHT22;10581;48.524;9.040;2022-08-25T12:29:06;28.90;99.90
20841;DHT22;10581;48.524;9.040;2022-08-25T12:32:02;28.70;99.90
20841;DHT22;10581;48.524;9.040;2022-08-25T12:34:38;28.60;99.90
20841;DHT22;10581;48.524;9.040;2022-08-25T12:37:13;28.60;99.90
20841;DHT22;10581;48.524;9.040;2022-08-25T12:40:00;28.70;99.90
20841;DHT22;10581;48.524;9.040;2022-08-25T12:42:29;28.70;99.90
20841;DHT22;10581;48.524;9.040;2022-08-25T12:47:45;28.70;99.90
20841;DHT22;10581;48.524;9.040;2022-08-25T12:50:37;28.70;99.90
20841;DHT22;10581;48.524;9.040;2022-08-25T12:53:13;28.70;99.90
20841;DHT22;10581;48.524;9.040;2022-08-25T12:55:45;28.80;99.90
20841;DHT22;10581;48.524;9.040;2022-08-25T12:58:11;28.90;99.90
20841;DHT22;10581;48.524;9.040;2022-08-25T13:06:23;29.30;99.90
20841;DHT22;10581;48.524;9.040;2022-08-25T13:14:36;29.90;99.90
20841;DHT22;10581;48.524;9.040;2022-08-25T13:17:02;29.70;99.90
20841;DHT22;10581;48.524;9.040;2022-08-25T13:19:28;30.00;99.90
20841;DHT22;10581;48.524;9.040;2022-08-25T13:21:56;30.40;99.90
20841;DHT22;10581;48.524;9.040;2022-08-25T13:24:33;30.60;99.90
20841;DHT22;10581;48.524;9.040;2022-08-25T13:27:02;30.60;99.90
20841;DHT22;10581;48.524;9.040;2022-08-25T13:29:33;30.70;99.90
20841;DHT22;10581;48.524;9.040;2022-08-25T13:32:04;31.00;99.90
20841;DHT22;10581;48.524;9.040;2022-08-25T13:34:39;30.70;99.90
20841;DHT22;10581;48.524;9.040;2022-08-25T13:37:17;30.90;99.90
20841;DHT22;10581;48.524;9.040;2022-08-25T13:40:14;30.80;99.90
20841;DHT22;10581;48.524;9.040;2022-08-25T13:42:42;30.70;99.90
20841;DHT22;10581;48.524;9.040;2022-08-25T13:45:15;30.60;99.90
20841;DHT22;10581;48.524;9.040;2022-08-25T13:47:43;30.40;99.90
20841;DHT22;10581;48.524;9.040;2022-08-25T13:50:30;30.60;99.90
20841;DHT22;10581;48.524;9.040;2022-08-25T13:53:02;30.70;99.90
20841;DHT22;10581;48.524;9.040;2022-08-25T13:55:37;30.80;99.90
20841;DHT22;10581;48.524;9.040;2022-08-25T13:58:05;30.90;99.90
20841;DHT22;10581;48.524;9.040;2022-08-25T14:00:36;31.10;99.90
20841;DHT22;10581;48.524;9.040;2022-08-25T14:03:04;31.20;99.90
20841;DHT22;10581;48.524;9.040;2022-08-25T14:05:39;31.00;99.90
20841;DHT22;10581;48.524;9.040;2022-08-25T14:08:07;31.00;99.90
20841;DHT22;10581;48.524;9.040;2022-08-25T14:11:04;31.00;99.90
20841;DHT22;10581;48.524;9.040;2022-08-25T14:13:32;31.00;99.90
20841;DHT22;10581;48.524;9.040;2022-08-25T14:16:20;31.20;99.90
20841;DHT22;10581;48.524;9.040;2022-08-25T14:18:50;30.70;99.90
20841;DHT22;10581;48.524;9.040;2022-08-25T14:21:18;30.50;99.90
20841;DHT22;10581;48.524;9.040;2022-08-25T14:23:44;30.20;99.90
20841;DHT22;10581;48.524;9.040;2022-08-25T14:26:10;30.10;99.90
20841;DHT22;10581;48.524;9.040;2022-08-25T14:28:35;30.10;99.90
20841;DHT22;10581;48.524;9.040;2022-08-25T14:31:23;29.80;99.90
20841;DHT22;10581;48.524;9.040;2022-08-25T14:34:04;29.80;99.90
20841;DHT22;10581;48.524;9.040;2022-08-25T14:36:32;29.70;99.90
20841;DHT22;10581;48.524;9.040;2022-08-25T14:38:58;29.80;99.90
20841;DHT22;10581;48.524;9.040;2022-08-25T14:41:25;29.60;99.90
20841;DHT22;10581;48.524;9.040;2022-08-25T14:43:52;29.60;99.90
20841;DHT22;10581;48.524;9.040;2022-08-25T14:46:23;29.50;99.90
20841;DHT22;10581;48.524;9.040;2022-08-25T14:48:53;29.40;99.90
20841;DHT22;10581;48.524;9.040;2022-08-25T14:51:22;29.40;99.90
20841;DHT22;10581;48.524;9.040;2022-08-25T14:53:48;29.50;99.90
20841;DHT22;10581;48.524;9.040;2022-08-25T14:56:14;29.60;99.90
20841;DHT22;10581;48.524;9.040;2022-08-25T14:58:40;29.80;99.90
20841;DHT22;10581;48.524;9.040;2022-08-25T15:01:06;30.00;99.90
20841;DHT22;10581;48.524;9.040;2022-08-25T15:03:37;30.20;99.90
20841;DHT22;10581;48.524;9.040;2022-08-25T15:06:04;30.10;99.90
20841;DHT22;10581;48.524;9.040;2022-08-25T15:08:30;29.80;99.90
20841;DHT22;10581;48.524;9.040;2022-08-25T15:11:15;29.50;99.90
20841;DHT22;10581;48.524;9.040;2022-08-25T15:13:41;29.60;99.90
20841;DHT22;10581;48.524;9.040;2022-08-25T15:16:31;30.00;99.90
20841;DHT22;10581;48.524;9.040;2022-08-25T15:18:57;30.40;99.80
20841;DHT22;10581;48.524;9.040;2022-08-25T15:21:23;30.60;99.20
20841;DHT22;10581;48.524;9.040;2022-08-25T15:23:48;30.50;99.40
20841;DHT22;10581;48.524;9.040;2022-08-25T15:26:15;30.30;98.90
20841;DHT22;10581;48.524;9.040;2022-08-25T15:28:44;30.00;99.30
20841;DHT22;10581;48.524;9.040;2022-08-25T15:31:11;29.90;99.50
20841;DHT22;10581;48.524;9.040;2022-08-25T15:33:37;29.60;99.90
20841;DHT22;10581;48.524;9.040;2022-08-25T15:36:08;29.30;99.90
20841;DHT22;10581;48.524;9.040;2022-08-25T15:38:36;29.20;99.90
20841;DHT22;10581;48.524;9.040;2022-08-25T15:41:03;29.20;99.90
20841;DHT22;10581;48.524;9.040;2022-08-25T15:43:29;29.20;99.90
20841;DHT22;10581;48.524;9.040;2022-08-25T15:45:55;29.10;99.90
20841;DHT22;10581;48.524;9.040;2022-08-25T15:48:21;28.90;99.90
20841;DHT22;10581;48.524;9.040;2022-08-25T15:50:46;28.80;99.90
20841;DHT22;10581;48.524;9.040;2022-08-25T15:53:13;28.60;99.90
20841;DHT22;10581;48.524;9.040;2022-08-25T15:55:39;28.60;99.90
20841;DHT22;10581;48.524;9.040;2022-08-25T15:58:05;28.70;99.90
20841;DHT22;10581;48.524;9.040;2022-08-25T16:00:31;28.90;99.90
20841;DHT22;10581;48.524;9.040;2022-08-25T16:02:57;29.10;99.90
20841;DHT22;10581;48.524;9.040;2022-08-25T16:05:23;29.10;99.60
20841;DHT22;10581;48.524;9.040;2022-08-25T16:07:48;29.20;99.40
20841;DHT22;10581;48.524;9.040;2022-08-25T16:10:14;29.20;99.40
20841;DHT22;10581;48.524;9.040;2022-08-25T16:12:40;29.30;99.50
20841;DHT22;10581;48.524;9.040;2022-08-25T16:15:06;29.30;99.60
20841;DHT22;10581;48.524;9.040;2022-08-25T16:17:32;29.30;99.30
20841;DHT22;10581;48.524;9.040;2022-08-25T16:19:58;29.20;99.50
20841;DHT22;10581;48.524;9.040;2022-08-25T16:22:23;29.20;99.50
20841;DHT22;10581;48.524;9.040;2022-08-25T16:24:49;29.20;99.10
20841;DHT22;10581;48.524;9.040;2022-08-25T16:27:16;29.20;99.20
20841;DHT22;10581;48.524;9.040;2022-08-25T16:29:43;29.10;99.30
20841;DHT22;10581;48.524;9.040;2022-08-25T16:32:11;29.10;99.90
20841;DHT22;10581;48.524;9.040;2022-08-25T16:34:37;29.10;99.60
20841;DHT22;10581;48.524;9.040;2022-08-25T16:37:03;29.20;99.50
20841;DHT22;10581;48.524;9.040;2022-08-25T16:39:29;29.40;98.90
20841;DHT22;10581;48.524;9.040;2022-08-25T16:41:55;29.60;98.50
20841;DHT22;10581;48.524;9.040;2022-08-25T16:44:21;29.80;98.80
20841;DHT22;10581;48.524;9.040;2022-08-25T16:46:47;29.90;98.50
20841;DHT22;10581;48.524;9.040;2022-08-25T16:49:13;29.80;99.10
20841;DHT22;10581;48.524;9.040;2022-08-25T16:51:40;29.80;99.20
20841;DHT22;10581;48.524;9.040;2022-08-25T16:54:06;29.60;99.00
20841;DHT22;10581;48.524;9.040;2022-08-25T16:56:52;29.40;99.00
20841;DHT22;10581;48.524;9.040;2022-08-25T16:59:18;29.10;98.80
20841;DHT22;10581;48.524;9.040;2022-08-25T17:01:43;29.00;99.20
20841;DHT22;10581;48.524;9.040;2022-08-25T17:04:10;28.90;99.00
20841;DHT22;10581;48.524;9.040;2022-08-25T17:06:39;28.80;99.40
20841;DHT22;10581;48.524;9.040;2022-08-25T17:09:06;28.80;99.90
20841;DHT22;10581;48.524;9.040;2022-08-25T17:11:34;28.70;99.90
20841;DHT22;10581;48.524;9.040;2022-08-25T17:14:02;28.70;99.90
20841;DHT22;10581;48.524;9.040;2022-08-25T17:16:31;28.60;99.90
20841;DHT22;10581;48.524;9.040;2022-08-25T17:19:00;28.60;99.90